createdAt,value
2019-01-26T00:00:40.376Z,73.68
2019-01-26T00:01:40.404Z,74.05
2019-01-26T00:02:41.118Z,73.86
2019-01-26T00:03:40.407Z,74.33
2019-01-26T00:04:40.425Z,74.24
2019-01-26T00:05:40.438Z,73.39
2019-01-26T00:06:40.520Z,72.44
2019-01-26T00:07:40.464Z,72.82
2019-01-26T00:08:40.491Z,73.39
2019-01-26T00:09:40.543Z,73.49
2019-01-26T00:10:40.513Z,73.49
2019-01-26T00:11:40.519Z,74.52
2019-01-26T00:12:40.588Z,75.00
2019-01-26T00:13:40.589Z,74.71
2019-01-26T00:14:40.560Z,74.52
2019-01-26T00:15:40.623Z,74.33
2019-01-26T00:16:40.588Z,74.81
2019-01-26T00:17:40.605Z,74.62
2019-01-26T00:18:40.646Z,74.71
2019-01-26T00:19:40.715Z,74.52
2019-01-26T00:20:40.646Z,75.32
2019-01-26T00:21:40.704Z,75.23
2019-01-26T00:22:40.701Z,75.42
2019-01-26T00:23:40.688Z,75.60
2019-01-26T00:24:40.735Z,75.32
2019-01-26T00:25:40.713Z,74.75
2019-01-26T00:26:40.743Z,74.43
2019-01-26T00:27:40.740Z,73.58
2019-01-26T00:28:40.771Z,74.24
2019-01-26T00:29:40.771Z,74.33
2019-01-26T00:30:40.779Z,74.75
2019-01-26T00:31:40.795Z,75.42
2019-01-26T00:32:40.892Z,75.32
2019-01-26T00:33:43.323Z,75.70
2019-01-26T00:34:40.852Z,75.70
2019-01-26T00:35:40.850Z,75.89
2019-01-26T00:36:40.869Z,75.70
2019-01-26T00:37:40.881Z,75.60
2019-01-26T00:38:40.900Z,75.98
2019-01-26T00:39:40.922Z,75.23
2019-01-26T00:40:40.917Z,75.04
2019-01-26T00:41:40.955Z,74.52
2019-01-26T00:42:40.958Z,73.49
2019-01-26T00:43:40.962Z,73.77
2019-01-26T00:44:41.020Z,73.96
2019-01-26T00:45:40.995Z,73.49
2019-01-26T00:46:41.000Z,74.28
2019-01-26T00:47:41.024Z,74.24
2019-01-26T00:48:41.040Z,73.86
2019-01-26T00:49:41.042Z,73.49
2019-01-26T00:50:41.102Z,73.68
2019-01-26T00:51:41.093Z,72.53
2019-01-26T00:52:41.098Z,72.92
2019-01-26T00:53:41.103Z,72.73
2019-01-26T00:54:41.133Z,72.53
2019-01-26T00:55:41.175Z,73.20
2019-01-26T00:56:41.163Z,72.44
2019-01-26T00:57:41.154Z,72.53
2019-01-26T00:58:41.183Z,73.39
2019-01-26T00:59:41.292Z,73.86
2019-01-26T01:00:41.207Z,73.80
2019-01-26T01:01:41.212Z,73.49
2019-01-26T01:02:41.253Z,73.30
2019-01-26T01:03:41.291Z,71.88
2019-01-26T01:04:41.258Z,72.63
2019-01-26T01:05:41.296Z,72.44
2019-01-26T01:06:41.283Z,72.44
2019-01-26T01:07:41.440Z,71.97
2019-01-26T01:08:41.318Z,70.45
2019-01-26T01:09:41.350Z,70.74
2019-01-26T01:10:41.339Z,71.40
2019-01-26T01:11:41.455Z,72.44
2019-01-26T01:12:41.388Z,72.53
2019-01-26T01:13:41.380Z,72.82
2019-01-26T01:14:41.406Z,72.16
2019-01-26T01:15:41.478Z,71.88
2019-01-26T01:16:41.429Z,72.34
2019-01-26T01:17:41.430Z,73.30
2019-01-26T01:18:41.453Z,73.39
2019-01-26T01:19:41.475Z,72.44
2019-01-26T01:20:41.499Z,72.06
2019-01-26T01:21:41.511Z,72.73
2019-01-26T01:22:41.499Z,72.67
2019-01-26T01:23:41.546Z,73.24
2019-01-26T01:24:41.538Z,73.33
2019-01-26T01:25:41.548Z,73.99
2019-01-26T01:26:41.574Z,74.09
2019-01-26T01:27:41.606Z,73.99
2019-01-26T01:28:41.589Z,73.24
2019-01-26T01:29:41.612Z,74.09
2019-01-26T01:30:41.637Z,73.52
2019-01-26T01:31:41.637Z,73.61
2019-01-26T01:32:41.657Z,73.33
2019-01-26T01:33:41.675Z,72.53
2019-01-26T01:34:41.707Z,71.88
2019-01-26T01:35:41.680Z,72.67
2019-01-26T01:36:41.709Z,72.00
2019-01-26T01:37:41.721Z,71.02
2019-01-26T01:38:41.740Z,71.12
2019-01-26T01:39:41.762Z,71.02
2019-01-26T01:40:41.750Z,70.93
2019-01-26T01:41:41.767Z,70.55
2019-01-26T01:42:41.790Z,70.26
2019-01-26T01:43:41.791Z,70.74
2019-01-26T01:44:41.814Z,71.31
2019-01-26T01:45:41.842Z,72.00
2019-01-26T01:46:42.951Z,72.96
2019-01-26T01:47:41.917Z,72.19
2019-01-26T01:48:41.861Z,73.24
2019-01-26T01:49:41.888Z,73.43
2019-01-26T01:50:41.898Z,73.33
2019-01-26T01:51:41.906Z,73.61
2019-01-26T01:52:42.000Z,73.90
2019-01-26T01:53:41.960Z,73.61
2019-01-26T01:54:41.955Z,73.90
2019-01-26T01:55:41.979Z,74.28
2019-01-26T01:56:41.994Z,74.28
2019-01-26T01:57:41.997Z,73.99
2019-01-26T01:58:42.002Z,73.80
2019-01-26T01:59:42.025Z,73.80
2019-01-26T02:00:42.036Z,73.80
2019-01-26T02:01:42.046Z,73.80
2019-01-26T02:02:42.061Z,73.43
2019-01-26T02:03:42.086Z,72.48
2019-01-26T02:04:42.149Z,73.52
2019-01-26T02:05:42.112Z,73.71
2019-01-26T02:06:42.278Z,73.80
2019-01-26T02:07:42.148Z,73.61
2019-01-26T02:08:42.162Z,73.99
2019-01-26T02:09:42.169Z,73.52
2019-01-26T02:10:42.226Z,73.80
2019-01-26T02:11:42.187Z,74.18
2019-01-26T02:12:42.217Z,74.37
2019-01-26T02:13:42.250Z,74.66
2019-01-26T02:14:42.245Z,74.85
2019-01-26T02:15:42.359Z,74.56
2019-01-26T02:16:42.268Z,74.66
2019-01-26T02:17:42.287Z,74.56
2019-01-26T02:18:42.287Z,74.47
2019-01-26T02:19:42.485Z,73.99
2019-01-26T02:20:42.327Z,74.66
2019-01-26T02:21:42.342Z,74.28
2019-01-26T02:22:42.353Z,73.99
2019-01-26T02:23:42.364Z,74.28
2019-01-26T02:24:42.404Z,73.99
2019-01-26T02:25:42.404Z,74.28
2019-01-26T02:26:42.400Z,74.56
2019-01-26T02:27:42.412Z,73.99
2019-01-26T02:28:42.509Z,73.99
2019-01-26T02:29:42.479Z,74.56
2019-01-26T02:30:42.459Z,74.56
2019-01-26T02:31:42.500Z,73.90
2019-01-26T02:32:42.500Z,74.28
2019-01-26T02:33:42.512Z,74.47
2019-01-26T02:34:42.526Z,74.75
2019-01-26T02:35:42.547Z,73.80
2019-01-26T02:36:42.544Z,74.09
2019-01-26T02:37:42.561Z,73.71
2019-01-26T02:38:42.569Z,73.52
2019-01-26T02:39:42.632Z,73.71
2019-01-26T02:40:42.671Z,73.90
2019-01-26T02:41:42.636Z,74.37
2019-01-26T02:42:42.655Z,74.28
2019-01-26T02:43:42.649Z,73.71
2019-01-26T02:44:42.662Z,74.09
2019-01-26T02:45:42.691Z,73.71
2019-01-26T02:46:42.686Z,73.90
2019-01-26T02:47:42.706Z,73.61
2019-01-26T02:48:42.713Z,73.61
2019-01-26T02:49:42.780Z,73.33
2019-01-26T02:50:42.760Z,73.52
2019-01-26T02:51:42.813Z,73.80
2019-01-26T02:52:42.768Z,73.99
2019-01-26T02:53:42.845Z,73.52
2019-01-26T02:54:42.794Z,73.52
2019-01-26T02:55:42.817Z,73.52
2019-01-26T02:56:42.842Z,73.80
2019-01-26T02:57:42.861Z,74.09
2019-01-26T02:58:42.869Z,73.90
2019-01-26T02:59:42.899Z,73.80
2019-01-26T03:00:42.881Z,73.80
2019-01-26T03:01:42.914Z,73.99
2019-01-26T03:02:42.936Z,73.52
2019-01-26T03:03:42.939Z,73.90
2019-01-26T03:04:42.950Z,73.90
2019-01-26T03:05:42.959Z,73.52
2019-01-26T03:06:42.984Z,73.99
2019-01-26T03:07:42.988Z,73.52
2019-01-26T03:08:43.048Z,73.52
2019-01-26T03:09:43.032Z,73.61
2019-01-26T03:10:43.024Z,73.71
2019-01-26T03:11:43.076Z,73.43
2019-01-26T03:12:43.058Z,73.43
2019-01-26T03:13:43.071Z,73.14
2019-01-26T03:14:43.091Z,73.33
2019-01-26T03:15:43.108Z,73.80
2019-01-26T03:16:43.115Z,74.28
2019-01-26T03:17:43.128Z,74.09
2019-01-26T03:18:43.142Z,74.28
2019-01-26T03:19:43.158Z,74.95
2019-01-26T03:20:43.166Z,74.66
2019-01-26T03:21:43.191Z,75.13
2019-01-26T03:22:43.245Z,74.95
2019-01-26T03:23:43.207Z,74.75
2019-01-26T03:24:43.229Z,73.99
2019-01-26T03:25:43.281Z,73.52
2019-01-26T03:26:43.259Z,73.61
2019-01-26T03:27:43.266Z,73.99
2019-01-26T03:28:43.286Z,74.09
2019-01-26T03:29:43.308Z,74.47
2019-01-26T03:30:43.323Z,74.37
2019-01-26T03:31:43.371Z,74.28
2019-01-26T03:32:43.344Z,73.99
2019-01-26T03:33:43.359Z,73.90
2019-01-26T03:34:43.376Z,74.37
2019-01-26T03:35:43.381Z,74.66
2019-01-26T03:36:43.397Z,75.04
2019-01-26T03:37:43.409Z,74.66
2019-01-26T03:38:43.555Z,73.61
2019-01-26T03:39:43.437Z,73.33
2019-01-26T03:40:43.458Z,73.61
2019-01-26T03:41:43.490Z,73.52
2019-01-26T03:42:43.522Z,74.28
2019-01-26T03:43:43.555Z,74.75
2019-01-26T03:44:43.531Z,74.37
2019-01-26T03:45:43.525Z,74.56
2019-01-26T03:46:43.536Z,74.85
2019-01-26T03:47:43.551Z,74.66
2019-01-26T03:48:43.639Z,75.13
2019-01-26T03:49:43.582Z,75.13
2019-01-26T03:50:43.622Z,75.04
2019-01-26T03:51:43.624Z,75.26
2019-01-26T03:52:43.631Z,75.23
2019-01-26T03:53:43.666Z,75.04
2019-01-26T03:54:43.665Z,75.23
2019-01-26T03:55:43.672Z,75.32
2019-01-26T03:56:43.688Z,75.23
2019-01-26T03:57:43.715Z,75.79
2019-01-26T03:58:43.723Z,75.64
2019-01-26T03:59:43.734Z,75.32
2019-01-26T04:00:43.738Z,75.23
2019-01-26T04:01:43.799Z,75.70
2019-01-26T04:02:43.770Z,75.84
2019-01-26T04:03:43.794Z,75.17
2019-01-26T04:04:43.818Z,75.64
2019-01-26T04:05:43.823Z,75.74
2019-01-26T04:06:43.841Z,75.84
2019-01-26T04:07:43.841Z,75.64
2019-01-26T04:08:43.878Z,75.55
2019-01-26T04:09:43.881Z,76.03
2019-01-26T04:10:43.908Z,76.74
2019-01-26T04:11:43.909Z,76.21
2019-01-26T04:12:43.946Z,76.03
2019-01-26T04:13:43.938Z,75.45
2019-01-26T04:14:43.965Z,75.32
2019-01-26T04:15:43.975Z,75.51
2019-01-26T04:16:43.989Z,75.17
2019-01-26T04:17:43.996Z,75.45
2019-01-26T04:18:44.024Z,76.21
2019-01-26T04:19:44.030Z,75.93
2019-01-26T04:20:44.042Z,76.03
2019-01-26T04:21:44.077Z,75.84
2019-01-26T04:22:44.080Z,76.31
2019-01-26T04:23:44.073Z,75.74
2019-01-26T04:24:44.087Z,76.31
2019-01-26T04:25:44.104Z,76.31
2019-01-26T04:26:44.116Z,76.78
2019-01-26T04:27:44.130Z,76.68
2019-01-26T04:28:44.147Z,76.31
2019-01-26T04:29:44.159Z,76.03
2019-01-26T04:30:44.206Z,76.21
2019-01-26T04:31:44.198Z,76.12
2019-01-26T04:32:44.216Z,75.74
2019-01-26T04:33:44.216Z,76.40
2019-01-26T04:34:44.235Z,75.70
2019-01-26T04:35:44.245Z,76.21
2019-01-26T04:36:44.260Z,75.79
2019-01-26T04:37:44.276Z,76.27
2019-01-26T04:38:44.318Z,76.17
2019-01-26T04:39:44.310Z,75.98
2019-01-26T04:40:44.333Z,76.78
2019-01-26T04:41:44.355Z,75.89
2019-01-26T04:42:44.345Z,76.31
2019-01-26T04:43:44.363Z,76.40
2019-01-26T04:44:44.412Z,75.32
2019-01-26T04:45:44.394Z,75.36
2019-01-26T04:46:44.407Z,75.42
2019-01-26T04:47:44.423Z,75.55
2019-01-26T04:48:44.444Z,75.36
2019-01-26T04:49:44.457Z,75.45
2019-01-26T04:50:44.490Z,75.26
2019-01-26T04:51:44.475Z,75.84
2019-01-26T04:52:44.501Z,75.93
2019-01-26T04:53:44.521Z,75.74
2019-01-26T04:54:44.525Z,75.07
2019-01-26T04:55:44.533Z,75.07
2019-01-26T04:56:44.569Z,75.17
2019-01-26T04:57:44.637Z,75.36
2019-01-26T04:58:44.586Z,75.26
2019-01-26T04:59:44.590Z,75.45
2019-01-26T05:00:44.625Z,75.36
2019-01-26T05:01:44.627Z,75.45
2019-01-26T05:02:44.682Z,75.74
2019-01-26T05:03:44.677Z,75.17
2019-01-26T05:04:44.737Z,75.55
2019-01-26T05:05:44.689Z,75.45
2019-01-26T05:06:44.725Z,75.26
2019-01-26T05:07:44.711Z,75.74
2019-01-26T05:08:44.726Z,75.26
2019-01-26T05:09:44.741Z,75.26
2019-01-26T05:10:44.756Z,75.84
2019-01-26T05:11:44.781Z,75.64
2019-01-26T05:12:44.802Z,75.64
2019-01-26T05:13:44.855Z,75.64
2019-01-26T05:14:44.847Z,75.74
2019-01-26T05:15:44.867Z,75.84
2019-01-26T05:16:44.891Z,75.93
2019-01-26T05:17:44.863Z,75.93
2019-01-26T05:18:44.947Z,73.61
2019-01-26T05:19:44.886Z,74.22
2019-01-26T05:20:44.901Z,75.04
2019-01-26T05:21:44.920Z,74.51
2019-01-26T05:22:44.945Z,74.47
2019-01-26T05:23:44.992Z,74.85
2019-01-26T05:24:45.029Z,75.07
2019-01-26T05:25:44.983Z,75.26
2019-01-26T05:26:45.000Z,75.45
2019-01-26T05:27:45.013Z,73.99
2019-01-26T05:28:45.182Z,73.71
2019-01-26T05:29:45.133Z,73.99
2019-01-26T05:30:45.331Z,72.48
2019-01-26T05:31:45.066Z,73.52
2019-01-26T05:32:45.219Z,73.99
2019-01-26T05:33:45.144Z,73.99
2019-01-26T05:34:45.133Z,74.60
2019-01-26T05:35:45.288Z,74.75
2019-01-26T05:36:45.231Z,74.79
2019-01-26T05:37:45.145Z,74.51
2019-01-26T05:38:45.197Z,74.37
2019-01-26T05:39:45.233Z,74.56
2019-01-26T05:40:45.256Z,73.80
2019-01-26T05:41:45.224Z,73.94
2019-01-26T05:42:45.279Z,74.37
2019-01-26T05:43:45.248Z,74.32
2019-01-26T05:44:45.278Z,74.60
2019-01-26T05:45:45.272Z,74.47
2019-01-26T05:46:45.317Z,74.60
2019-01-26T05:47:49.039Z,74.88
2019-01-26T05:48:45.309Z,74.56
2019-01-26T05:49:45.333Z,74.88
2019-01-26T05:50:45.390Z,75.07
2019-01-26T05:51:45.354Z,74.09
2019-01-26T05:52:45.364Z,73.61
2019-01-26T05:53:45.375Z,73.90
2019-01-26T05:54:45.399Z,74.47
2019-01-26T05:55:45.417Z,73.99
2019-01-26T05:56:45.423Z,73.99
2019-01-26T05:57:45.483Z,73.90
2019-01-26T05:58:45.460Z,74.18
2019-01-26T05:59:45.466Z,74.32
2019-01-26T06:00:45.504Z,74.79
2019-01-26T06:01:45.493Z,74.56
2019-01-26T06:02:45.557Z,73.90
2019-01-26T06:03:45.527Z,74.47
2019-01-26T06:04:45.575Z,74.66
2019-01-26T06:05:45.581Z,73.33
2019-01-26T06:06:45.573Z,73.61
2019-01-26T06:07:45.610Z,73.14
2019-01-26T06:08:45.600Z,73.43
2019-01-26T06:09:45.646Z,74.28
2019-01-26T06:10:45.627Z,73.52
2019-01-26T06:11:45.654Z,73.99
2019-01-26T06:12:45.655Z,72.57
2019-01-26T06:13:45.683Z,72.57
2019-01-26T06:14:45.680Z,73.14
2019-01-26T06:15:45.734Z,72.57
2019-01-26T06:16:45.721Z,71.34
2019-01-26T06:17:45.753Z,70.97
2019-01-26T06:18:45.742Z,70.97
2019-01-26T06:19:45.772Z,68.88
2019-01-26T06:20:45.765Z,67.55
2019-01-26T06:21:45.801Z,67.83
2019-01-26T06:22:45.829Z,68.69
2019-01-26T06:23:46.823Z,69.54
2019-01-26T06:24:45.835Z,69.17
2019-01-26T06:25:45.873Z,67.27
2019-01-26T06:26:45.864Z,66.60
2019-01-26T06:27:45.879Z,68.02
2019-01-26T06:28:45.897Z,68.31
2019-01-26T06:29:45.913Z,68.79
2019-01-26T06:30:45.921Z,67.27
2019-01-26T06:31:45.924Z,66.51
2019-01-26T06:32:45.967Z,65.84
2019-01-26T06:33:45.971Z,66.32
2019-01-26T06:34:45.979Z,67.36
2019-01-26T06:35:45.997Z,67.36
2019-01-26T06:36:46.000Z,66.99
2019-01-26T06:37:46.041Z,66.13
2019-01-26T06:38:46.039Z,65.66
2019-01-26T06:39:46.047Z,65.00
2019-01-26T06:40:46.058Z,62.91
2019-01-26T06:41:46.070Z,62.72
2019-01-26T06:42:46.091Z,63.10
2019-01-26T06:43:46.105Z,62.82
2019-01-26T06:44:46.113Z,62.43
2019-01-26T06:45:46.134Z,62.43
2019-01-26T06:46:46.234Z,62.34
2019-01-26T06:47:46.183Z,62.24
2019-01-26T06:48:46.181Z,61.58
2019-01-26T06:49:46.270Z,61.77
2019-01-26T06:50:46.270Z,61.40
2019-01-26T06:51:46.256Z,61.58
2019-01-26T06:52:46.229Z,61.49
2019-01-26T06:53:46.262Z,61.49
2019-01-26T06:54:46.279Z,62.24
2019-01-26T06:55:46.266Z,59.12
2019-01-26T06:56:46.290Z,58.26
2019-01-26T06:57:46.305Z,57.42
2019-01-26T06:58:46.322Z,58.55
2019-01-26T06:59:46.334Z,58.65
2019-01-26T07:00:46.371Z,58.36
2019-01-26T07:01:46.367Z,57.54
2019-01-26T07:02:46.416Z,58.67
2019-01-26T07:03:46.431Z,58.48
2019-01-26T07:04:46.424Z,57.82
2019-01-26T07:05:46.424Z,58.48
2019-01-26T07:06:46.447Z,57.06
2019-01-26T07:07:46.440Z,55.17
2019-01-26T07:08:46.457Z,55.36
2019-01-26T07:09:46.482Z,54.79
2019-01-26T07:10:46.490Z,54.15
2019-01-26T07:11:46.536Z,53.96
2019-01-26T07:12:46.516Z,53.49
2019-01-26T07:13:46.560Z,53.58
2019-01-26T07:14:46.540Z,53.87
2019-01-26T07:15:46.577Z,53.58
2019-01-26T07:16:46.617Z,53.39
2019-01-26T07:17:46.594Z,52.73
2019-01-26T07:18:46.665Z,52.26
2019-01-26T07:19:46.623Z,52.66
2019-01-26T07:20:46.643Z,52.83
2019-01-26T07:21:46.643Z,52.76
2019-01-26T07:22:46.716Z,52.76
2019-01-26T07:23:46.702Z,52.66
2019-01-26T07:24:46.698Z,53.61
2019-01-26T07:25:46.720Z,53.52
2019-01-26T07:26:46.740Z,52.66
2019-01-26T07:27:46.756Z,53.23
2019-01-26T07:28:46.768Z,53.89
2019-01-26T07:29:46.766Z,53.61
2019-01-26T07:30:46.780Z,53.89
2019-01-26T07:31:46.824Z,54.37
2019-01-26T07:32:46.831Z,53.52
2019-01-26T07:33:46.815Z,54.08
2019-01-26T07:34:46.837Z,54.18
2019-01-26T07:35:46.877Z,54.27
2019-01-26T07:36:46.881Z,53.80
2019-01-26T07:37:46.898Z,54.87
2019-01-26T07:38:46.901Z,54.85
2019-01-26T07:39:46.917Z,55.91
2019-01-26T07:40:46.942Z,55.22
2019-01-26T07:41:46.945Z,55.98
2019-01-26T07:42:46.973Z,54.66
2019-01-26T07:43:47.025Z,53.73
2019-01-26T07:44:46.995Z,55.06
2019-01-26T07:45:47.019Z,55.63
2019-01-26T07:46:47.019Z,55.51
2019-01-26T07:47:47.059Z,55.35
2019-01-26T07:48:47.060Z,54.78
2019-01-26T07:49:47.066Z,55.35
2019-01-26T07:50:47.086Z,56.01
2019-01-26T07:51:47.098Z,56.10
2019-01-26T07:52:47.155Z,55.82
2019-01-26T07:53:47.360Z,55.54
2019-01-26T07:54:47.143Z,56.96
2019-01-26T07:55:47.203Z,56.87
2019-01-26T07:56:47.188Z,57.53
2019-01-26T07:57:47.218Z,56.49
2019-01-26T07:58:47.280Z,56.96
2019-01-26T07:59:47.227Z,55.25
2019-01-26T08:00:47.241Z,56.96
2019-01-26T08:01:47.248Z,57.72
2019-01-26T08:02:47.281Z,57.53
2019-01-26T08:03:47.304Z,58.29
2019-01-26T08:04:47.311Z,57.24
2019-01-26T08:05:47.347Z,57.24
2019-01-26T08:06:47.355Z,58.29
2019-01-26T08:07:47.374Z,58.58
2019-01-26T08:08:47.359Z,56.77
2019-01-26T08:09:47.380Z,56.87
2019-01-26T08:10:47.395Z,55.63
2019-01-26T08:11:47.429Z,54.78
2019-01-26T08:12:47.466Z,55.44
2019-01-26T08:13:47.439Z,56.20
2019-01-26T08:14:47.451Z,56.29
2019-01-26T08:15:47.526Z,56.87
2019-01-26T08:16:47.539Z,57.24
2019-01-26T08:17:47.537Z,56.49
2019-01-26T08:18:47.518Z,57.43
2019-01-26T08:19:47.567Z,56.20
2019-01-26T08:20:47.577Z,56.77
2019-01-26T08:21:47.576Z,57.43
2019-01-26T08:22:47.655Z,57.62
2019-01-26T08:23:47.596Z,57.43
2019-01-26T08:24:47.679Z,57.34
2019-01-26T08:25:47.626Z,58.39
2019-01-26T08:26:47.651Z,58.95
2019-01-26T08:27:47.687Z,57.62
2019-01-26T08:28:47.694Z,56.77
2019-01-26T08:29:47.824Z,55.82
2019-01-26T08:30:47.715Z,57.34
2019-01-26T08:31:47.726Z,57.06
2019-01-26T08:32:47.731Z,58.20
2019-01-26T08:33:47.756Z,57.24
2019-01-26T08:34:47.775Z,57.34
2019-01-26T08:35:47.784Z,57.24
2019-01-26T08:36:47.871Z,57.53
2019-01-26T08:37:47.821Z,57.43
2019-01-26T08:38:47.836Z,57.53
2019-01-26T08:39:47.869Z,56.96
2019-01-26T08:40:47.873Z,55.54
2019-01-26T08:41:47.890Z,56.58
2019-01-26T08:42:47.897Z,57.91
2019-01-26T08:43:47.910Z,57.72
2019-01-26T08:44:47.925Z,59.05
2019-01-26T08:45:47.949Z,58.86
2019-01-26T08:46:47.957Z,58.00
2019-01-26T08:47:48.018Z,58.00
2019-01-26T08:48:47.979Z,57.06
2019-01-26T08:49:47.998Z,56.39
2019-01-26T08:50:48.016Z,57.06
2019-01-26T08:51:48.053Z,56.01
2019-01-26T08:52:48.089Z,56.39
2019-01-26T08:53:48.074Z,57.72
2019-01-26T08:54:48.084Z,57.81
2019-01-26T08:55:48.107Z,56.87
2019-01-26T08:56:48.141Z,56.77
2019-01-26T08:57:48.125Z,56.20
2019-01-26T08:58:48.158Z,56.20
2019-01-26T08:59:48.219Z,56.39
2019-01-26T09:00:48.176Z,58.48
2019-01-26T09:01:48.205Z,56.49
2019-01-26T09:02:48.216Z,58.00
2019-01-26T09:03:48.249Z,57.62
2019-01-26T09:04:48.234Z,57.81
2019-01-26T09:05:48.273Z,57.62
2019-01-26T09:06:48.264Z,57.43
2019-01-26T09:07:48.306Z,58.48
2019-01-26T09:08:48.357Z,56.87
2019-01-26T09:09:48.343Z,57.91
2019-01-26T09:10:48.334Z,58.48
2019-01-26T09:11:48.353Z,57.53
2019-01-26T09:12:48.375Z,58.95
2019-01-26T09:13:48.382Z,58.39
2019-01-26T09:14:48.400Z,58.39
2019-01-26T09:15:48.414Z,58.32
2019-01-26T09:16:48.430Z,58.39
2019-01-26T09:17:48.483Z,60.00
2019-01-26T09:18:48.481Z,58.58
2019-01-26T09:19:48.511Z,57.81
2019-01-26T09:20:48.494Z,58.95
2019-01-26T09:21:48.511Z,58.95
2019-01-26T09:22:48.556Z,58.00
2019-01-26T09:23:48.552Z,58.80
2019-01-26T09:24:48.552Z,58.86
2019-01-26T09:25:48.573Z,59.08
2019-01-26T09:26:48.593Z,58.80
2019-01-26T09:27:48.613Z,59.33
2019-01-26T09:28:48.618Z,60.13
2019-01-26T09:29:48.690Z,60.31
2019-01-26T09:30:48.665Z,60.98
2019-01-26T09:31:48.683Z,60.19
2019-01-26T09:32:48.688Z,58.70
2019-01-26T09:33:48.715Z,60.31
2019-01-26T09:34:48.743Z,60.31
2019-01-26T09:35:48.737Z,60.41
2019-01-26T09:36:48.758Z,61.07
2019-01-26T09:37:48.774Z,59.55
2019-01-26T09:38:48.843Z,59.36
2019-01-26T09:39:48.792Z,59.65
2019-01-26T09:40:48.811Z,60.60
2019-01-26T09:41:48.855Z,60.60
2019-01-26T09:42:48.861Z,60.41
2019-01-26T09:43:48.867Z,60.88
2019-01-26T09:44:48.900Z,59.93
2019-01-26T09:45:48.927Z,60.50
2019-01-26T09:46:48.960Z,60.60
2019-01-26T09:47:49.011Z,60.88
2019-01-26T09:48:48.944Z,62.31
2019-01-26T09:49:48.960Z,60.98
2019-01-26T09:50:48.972Z,61.45
2019-01-26T09:51:48.998Z,60.98
2019-01-26T09:52:49.005Z,60.60
2019-01-26T09:53:49.034Z,61.26
2019-01-26T09:54:49.044Z,62.12
2019-01-26T09:55:49.051Z,61.93
2019-01-26T09:56:49.070Z,59.93
2019-01-26T09:57:49.111Z,60.69
2019-01-26T09:58:49.165Z,60.13
2019-01-26T09:59:49.127Z,60.31
2019-01-26T10:00:49.146Z,60.31
2019-01-26T10:01:49.229Z,59.46
2019-01-26T10:02:49.169Z,60.22
2019-01-26T10:03:49.470Z,60.03
2019-01-26T10:04:49.210Z,60.98
2019-01-26T10:05:49.252Z,61.74
2019-01-26T10:06:49.235Z,62.88
2019-01-26T10:07:49.271Z,60.98
2019-01-26T10:08:49.287Z,61.26
2019-01-26T10:09:49.276Z,61.65
2019-01-26T10:10:49.326Z,61.36
2019-01-26T10:11:49.350Z,60.60
2019-01-26T10:12:49.387Z,61.45
2019-01-26T10:13:49.350Z,61.55
2019-01-26T10:14:49.371Z,61.74
2019-01-26T10:15:49.375Z,60.03
2019-01-26T10:16:49.405Z,59.17
2019-01-26T10:17:49.433Z,59.65
2019-01-26T10:18:53.509Z,59.74
2019-01-26T10:19:49.448Z,60.88
2019-01-26T10:20:49.459Z,60.22
2019-01-26T10:21:49.499Z,59.36
2019-01-26T10:22:49.538Z,59.74
2019-01-26T10:23:49.507Z,59.08
2019-01-26T10:24:49.547Z,60.60
2019-01-26T10:25:49.539Z,60.41
2019-01-26T10:26:49.568Z,60.69
2019-01-26T10:27:49.579Z,60.31
2019-01-26T10:28:49.590Z,60.60
2019-01-26T10:29:49.618Z,60.88
2019-01-26T10:30:49.641Z,61.65
2019-01-26T10:31:49.654Z,61.36
2019-01-26T10:32:49.660Z,60.69
2019-01-26T10:33:49.667Z,60.22
2019-01-26T10:34:49.687Z,59.84
2019-01-26T10:35:49.716Z,59.36
2019-01-26T10:36:49.718Z,59.08
2019-01-26T10:37:49.741Z,59.36
2019-01-26T10:38:49.753Z,60.13
2019-01-26T10:39:49.774Z,59.93
2019-01-26T10:40:49.791Z,60.03
2019-01-26T10:41:49.802Z,60.98
2019-01-26T10:42:49.822Z,59.27
2019-01-26T10:43:49.850Z,59.74
2019-01-26T10:44:49.885Z,57.94
2019-01-26T10:45:49.956Z,57.46
2019-01-26T10:46:49.902Z,58.32
2019-01-26T10:47:49.923Z,57.75
2019-01-26T10:48:49.918Z,58.41
2019-01-26T10:49:49.936Z,58.89
2019-01-26T10:50:49.957Z,60.79
2019-01-26T10:51:49.972Z,59.65
2019-01-26T10:52:50.015Z,59.27
2019-01-26T10:53:50.001Z,59.27
2019-01-26T10:54:50.020Z,59.55
2019-01-26T10:55:50.057Z,59.08
2019-01-26T10:56:50.048Z,58.80
2019-01-26T10:57:50.077Z,59.84
2019-01-26T10:58:50.109Z,60.41
2019-01-26T10:59:50.118Z,59.27
2019-01-26T11:00:50.125Z,57.37
2019-01-26T11:01:50.162Z,58.41
2019-01-26T11:02:50.169Z,59.27
2019-01-26T11:03:50.177Z,59.46
2019-01-26T11:04:50.176Z,60.13
2019-01-26T11:05:50.198Z,59.17
2019-01-26T11:06:50.218Z,57.56
2019-01-26T11:07:50.251Z,58.51
2019-01-26T11:08:50.250Z,58.22
2019-01-26T11:09:50.265Z,58.41
2019-01-26T11:10:50.302Z,57.09
2019-01-26T11:11:50.360Z,57.56
2019-01-26T11:12:50.443Z,57.84
2019-01-26T11:13:50.364Z,59.36
2019-01-26T11:14:50.345Z,59.17
2019-01-26T11:15:50.372Z,58.03
2019-01-26T11:16:50.377Z,57.94
2019-01-26T11:17:50.388Z,58.41
2019-01-26T11:18:50.435Z,58.61
2019-01-26T11:19:50.424Z,58.41
2019-01-26T11:20:50.442Z,58.80
2019-01-26T11:21:50.457Z,58.61
2019-01-26T11:22:50.487Z,58.61
2019-01-26T11:23:50.486Z,58.98
2019-01-26T11:24:50.519Z,59.55
2019-01-26T11:25:50.526Z,59.17
2019-01-26T11:26:50.611Z,58.51
2019-01-26T11:27:50.570Z,59.17
2019-01-26T11:28:50.574Z,59.17
2019-01-26T11:29:50.599Z,58.98
2019-01-26T11:30:50.638Z,59.08
2019-01-26T11:31:50.624Z,58.80
2019-01-26T11:32:50.643Z,59.36
2019-01-26T11:33:50.665Z,58.98
2019-01-26T11:34:50.670Z,58.41
2019-01-26T11:35:50.683Z,58.98
2019-01-26T11:36:50.713Z,59.17
2019-01-26T11:37:50.728Z,60.91
2019-01-26T11:38:50.780Z,60.72
2019-01-26T11:39:50.770Z,60.13
2019-01-26T11:40:50.799Z,59.17
2019-01-26T11:41:50.790Z,57.46
2019-01-26T11:42:50.824Z,57.84
2019-01-26T11:43:51.465Z,59.46
2019-01-26T11:44:50.843Z,60.63
2019-01-26T11:45:50.858Z,61.20
2019-01-26T11:46:50.882Z,60.44
2019-01-26T11:47:50.895Z,60.06
2019-01-26T11:48:50.913Z,60.13
2019-01-26T11:49:50.920Z,59.17
2019-01-26T11:50:50.943Z,59.46
2019-01-26T11:51:51.005Z,60.41
2019-01-26T11:52:50.965Z,59.84
2019-01-26T11:53:50.997Z,59.17
2019-01-26T11:54:51.011Z,58.32
2019-01-26T11:55:51.023Z,58.41
2019-01-26T11:56:51.087Z,59.08
2019-01-26T11:57:51.074Z,58.70
2019-01-26T11:58:51.094Z,59.27
2019-01-26T11:59:51.083Z,58.98
2019-01-26T12:00:51.102Z,58.70
2019-01-26T12:01:51.168Z,59.08
2019-01-26T12:02:51.159Z,59.17
2019-01-26T12:03:51.195Z,58.51
2019-01-26T12:04:51.173Z,58.98
2019-01-26T12:05:51.191Z,59.36
2019-01-26T12:06:51.200Z,60.50
2019-01-26T12:07:51.220Z,60.53
2019-01-26T12:08:51.245Z,60.03
2019-01-26T12:09:51.269Z,59.46
2019-01-26T12:10:51.338Z,59.08
2019-01-26T12:11:51.306Z,60.82
2019-01-26T12:12:51.310Z,62.05
2019-01-26T12:13:51.317Z,60.44
2019-01-26T12:14:51.333Z,60.82
2019-01-26T12:15:51.350Z,61.39
2019-01-26T12:16:51.374Z,60.98
2019-01-26T12:17:51.387Z,60.79
2019-01-26T12:18:51.538Z,59.27
2019-01-26T12:19:51.416Z,59.55
2019-01-26T12:20:51.434Z,59.68
2019-01-26T12:21:51.452Z,60.16
2019-01-26T12:22:51.502Z,60.63
2019-01-26T12:23:51.481Z,61.01
2019-01-26T12:24:51.494Z,60.53
2019-01-26T12:25:51.517Z,61.10
2019-01-26T12:26:51.530Z,60.44
2019-01-26T12:27:51.549Z,60.41
2019-01-26T12:28:51.566Z,61.10
2019-01-26T12:29:51.596Z,60.91
2019-01-26T12:30:51.610Z,61.01
2019-01-26T12:31:51.637Z,61.77
2019-01-26T12:32:51.638Z,62.15
2019-01-26T12:33:51.650Z,62.81
2019-01-26T12:34:51.655Z,61.96
2019-01-26T12:35:51.677Z,60.88
2019-01-26T12:36:51.706Z,60.91
2019-01-26T12:37:51.708Z,61.58
2019-01-26T12:38:51.729Z,62.72
2019-01-26T12:39:51.776Z,61.87
2019-01-26T12:40:52.470Z,62.91
2019-01-26T12:41:52.531Z,62.81
2019-01-26T12:42:51.799Z,61.74
2019-01-26T12:43:51.842Z,61.87
2019-01-26T12:44:51.821Z,63.01
2019-01-26T12:45:51.841Z,63.01
2019-01-26T12:46:51.869Z,62.62
2019-01-26T12:47:51.883Z,62.43
2019-01-26T12:48:51.911Z,62.53
2019-01-26T12:49:51.924Z,62.91
2019-01-26T12:50:51.939Z,62.72
2019-01-26T12:51:51.937Z,62.62
2019-01-26T12:52:51.959Z,62.62